createdAt,value
2019-02-08T00:02:09.188Z,6.50
2019-02-08T00:04:53.606Z,6.50
2019-02-08T00:07:38.709Z,6.60
2019-02-08T00:10:23.867Z,6.60
2019-02-08T00:13:09.031Z,6.60
2019-02-08T00:15:54.193Z,6.70
2019-02-08T00:18:39.394Z,6.70
2019-02-08T00:21:24.611Z,6.70
2019-02-08T00:24:09.583Z,6.70
2019-02-08T00:26:54.708Z,6.80
2019-02-08T00:29:39.332Z,6.80
2019-02-08T00:32:24.279Z,6.80
2019-02-08T00:35:09.713Z,6.80
2019-02-08T00:37:54.509Z,6.80
2019-02-08T00:40:39.698Z,6.80
2019-02-08T00:43:24.664Z,6.70
2019-02-08T00:46:09.348Z,6.70
2019-02-08T00:48:54.404Z,6.70
2019-02-08T00:51:39.283Z,6.70
2019-02-08T00:54:24.197Z,6.60
2019-02-08T00:57:09.158Z,6.60
2019-02-08T00:59:53.948Z,6.60
2019-02-08T01:02:39.880Z,6.50
2019-02-08T01:05:25.708Z,6.50
2019-02-08T01:08:10.902Z,6.40
2019-02-08T01:10:55.789Z,6.30
2019-02-08T01:13:40.714Z,6.30
2019-02-08T01:16:25.337Z,6.30
2019-02-08T01:19:10.491Z,6.30
2019-02-08T01:21:55.510Z,6.30
2019-02-08T01:24:40.084Z,6.30
2019-02-08T01:27:24.663Z,6.30
2019-02-08T01:30:18.605Z,6.40
2019-02-08T01:33:04.104Z,6.40
2019-02-08T01:35:48.419Z,6.50
2019-02-08T01:38:32.847Z,6.60
2019-02-08T01:41:17.637Z,6.60
2019-02-08T01:44:02.667Z,6.60
2019-02-08T01:46:47.852Z,6.60
2019-02-08T01:49:32.993Z,6.70
2019-02-08T01:52:17.449Z,6.80
2019-02-08T01:55:04.937Z,6.80
2019-02-08T01:57:50.367Z,6.80
2019-02-08T02:00:38.541Z,6.80
2019-02-08T02:03:23.355Z,6.90
2019-02-08T02:06:08.147Z,7.00
2019-02-08T02:08:52.843Z,7.00
2019-02-08T02:11:37.804Z,7.00
2019-02-08T02:14:22.653Z,7.00
2019-02-08T02:17:07.643Z,6.90
2019-02-08T02:19:52.218Z,7.00
2019-02-08T02:22:36.798Z,7.00
2019-02-08T02:25:21.552Z,7.00
2019-02-08T02:28:06.583Z,7.00
2019-02-08T02:30:51.398Z,7.00
2019-02-08T02:33:35.932Z,7.00
2019-02-08T02:36:20.632Z,7.00
2019-02-08T02:39:06.983Z,6.90
2019-02-08T02:41:51.328Z,6.80
2019-02-08T02:44:36.275Z,6.70
2019-02-08T02:47:21.399Z,6.70
2019-02-08T02:50:09.015Z,6.70
2019-02-08T02:52:53.588Z,6.60
2019-02-08T02:55:38.498Z,6.60
2019-02-08T02:58:23.352Z,6.50
2019-02-08T03:01:08.298Z,6.40
2019-02-08T03:03:53.158Z,6.40
2019-02-08T03:06:37.671Z,6.50
2019-02-08T03:09:22.187Z,6.40
2019-02-08T03:12:06.858Z,6.40
2019-02-08T03:14:51.924Z,6.40
2019-02-08T03:17:36.394Z,6.30
2019-02-08T03:20:22.551Z,6.30
2019-02-08T03:23:07.219Z,6.30
2019-02-08T03:25:51.806Z,6.30
2019-02-08T03:28:36.748Z,6.20
2019-02-08T03:31:21.336Z,6.20
2019-02-08T03:34:06.292Z,6.10
2019-02-08T03:36:51.019Z,6.10
2019-02-08T03:39:35.916Z,6.00
2019-02-08T03:42:20.579Z,6.00
2019-02-08T03:45:08.102Z,6.10
2019-02-08T03:47:53.352Z,6.10
2019-02-08T03:50:38.446Z,6.20
2019-02-08T03:53:23.194Z,6.20
2019-02-08T03:56:08.137Z,6.20
2019-02-08T03:58:52.782Z,6.30
2019-02-08T04:01:37.763Z,6.30
2019-02-08T04:04:22.218Z,6.30
2019-02-08T04:07:06.838Z,6.30
2019-02-08T04:09:51.367Z,6.30
2019-02-08T04:12:36.538Z,6.20
2019-02-08T04:15:23.097Z,6.20
2019-02-08T04:18:07.790Z,6.10
2019-02-08T04:20:52.367Z,6.10
2019-02-08T04:23:37.006Z,6.10
2019-02-08T04:26:21.873Z,6.00
2019-02-08T04:29:06.417Z,6.00
2019-02-08T04:31:51.083Z,5.90
2019-02-08T04:34:35.632Z,5.80
2019-02-08T04:37:21.173Z,5.80
2019-02-08T04:40:11.958Z,5.70
2019-02-08T04:42:56.868Z,5.70
2019-02-08T04:45:41.333Z,5.60
2019-02-08T04:48:25.849Z,5.60
2019-02-08T04:51:10.771Z,5.60
2019-02-08T04:53:55.991Z,5.60
2019-02-08T04:56:41.023Z,5.60
2019-02-08T04:59:25.377Z,5.70
2019-02-08T05:02:10.011Z,5.80
2019-02-08T05:04:54.613Z,5.80
2019-02-08T05:07:39.139Z,5.80
2019-02-08T05:10:29.847Z,5.80
2019-02-08T05:13:14.683Z,5.90
2019-02-08T05:15:59.285Z,5.90
2019-02-08T05:18:44.003Z,5.90
2019-02-08T05:21:29.044Z,6.00
2019-02-08T05:24:13.931Z,6.00
2019-02-08T05:26:58.553Z,5.90
2019-02-08T05:29:43.343Z,5.90
2019-02-08T05:32:27.863Z,5.90
2019-02-08T05:35:12.573Z,5.80
2019-02-08T05:37:57.374Z,5.80
2019-02-08T05:40:42.586Z,5.80
2019-02-08T05:43:27.532Z,5.90
2019-02-08T05:46:11.976Z,5.90
2019-02-08T05:48:56.645Z,5.90
2019-02-08T05:51:41.144Z,5.90
2019-02-08T05:54:25.922Z,5.90
2019-02-08T05:57:12.521Z,5.80
2019-02-08T05:59:57.089Z,5.80
2019-02-08T06:02:41.709Z,5.80
2019-02-08T06:05:26.741Z,5.70
2019-02-08T06:08:11.833Z,5.70
2019-02-08T06:10:56.573Z,5.70
2019-02-08T06:13:41.864Z,5.60
2019-02-08T06:16:26.645Z,5.60
2019-02-08T06:19:11.531Z,5.70
2019-02-08T06:21:56.456Z,5.70
2019-02-08T06:24:41.092Z,5.70
2019-02-08T06:27:25.648Z,5.80
2019-02-08T06:30:28.382Z,5.80
2019-02-08T06:33:13.283Z,5.80
2019-02-08T06:35:58.451Z,5.80
2019-02-08T06:38:43.789Z,5.90
2019-02-08T06:41:28.732Z,6.00
2019-02-08T06:44:13.334Z,6.10
2019-02-08T06:46:58.049Z,6.10
2019-02-08T06:49:42.882Z,6.20
2019-02-08T06:52:27.458Z,6.20
2019-02-08T06:55:12.117Z,6.30
2019-02-08T06:58:04.613Z,6.20
2019-02-08T07:01:08.997Z,6.30
2019-02-08T07:03:55.385Z,6.40
2019-02-08T07:06:50.656Z,6.40
2019-02-08T07:09:37.703Z,6.40
2019-02-08T07:12:33.307Z,6.50
2019-02-08T07:15:20.295Z,6.50
2019-02-08T07:18:15.803Z,6.60
2019-02-08T07:21:14.501Z,6.60
2019-02-08T07:24:13.636Z,6.60
2019-02-08T07:27:05.849Z,6.60
2019-02-08T07:29:52.839Z,6.70
2019-02-08T07:32:39.383Z,6.80
2019-02-08T07:35:31.566Z,6.80
2019-02-08T07:38:20.468Z,6.90
2019-02-08T07:41:10.073Z,6.90
2019-02-08T07:43:57.225Z,6.90
2019-02-08T07:46:45.962Z,7.00
2019-02-08T07:49:38.431Z,7.00
2019-02-08T07:52:42.132Z,7.10
2019-02-08T07:55:28.650Z,7.10
2019-02-08T07:58:15.337Z,7.20
2019-02-08T08:01:02.204Z,7.20
2019-02-08T08:04:01.168Z,7.20
2019-02-08T08:06:44.102Z,7.30
2019-02-08T08:09:42.391Z,7.30
2019-02-08T08:12:46.023Z,7.30
2019-02-08T08:15:36.023Z,7.40
2019-02-08T08:18:23.007Z,7.40
2019-02-08T08:21:09.737Z,7.40
2019-02-08T08:23:56.455Z,7.50
2019-02-08T08:26:53.391Z,7.50
2019-02-08T08:29:44.026Z,7.60
2019-02-08T08:32:33.938Z,7.60
2019-02-08T08:35:37.640Z,7.60
2019-02-08T08:38:51.755Z,7.60
2019-02-08T08:42:09.191Z,7.60
2019-02-08T08:45:14.481Z,7.70
2019-02-08T08:48:12.157Z,7.80
2019-02-08T08:51:06.720Z,7.80
2019-02-08T08:54:18.071Z,7.90
2019-02-08T08:57:06.616Z,8.00
2019-02-08T09:00:14.525Z,8.00
2019-02-08T09:03:18.286Z,8.00
2019-02-08T09:06:32.221Z,8.00
2019-02-08T09:09:35.480Z,8.10
2019-02-08T09:12:33.067Z,8.10
2019-02-08T09:15:30.610Z,8.20
2019-02-08T09:18:35.667Z,8.30
2019-02-08T09:21:44.012Z,8.30
2019-02-08T09:24:44.866Z,8.30
2019-02-08T09:27:39.555Z,8.40
2019-02-08T09:30:47.973Z,8.40
2019-02-08T09:33:51.612Z,8.50
2019-02-08T09:36:47.380Z,8.50
2019-02-08T09:40:06.340Z,8.60
2019-02-08T09:43:13.146Z,8.70
2019-02-08T09:46:34.361Z,8.70
2019-02-08T09:49:54.931Z,8.70
2019-02-08T09:53:03.171Z,8.80
2019-02-08T09:56:09.293Z,8.80
2019-02-08T09:59:15.618Z,8.90
2019-02-08T10:02:35.802Z,8.90
2019-02-08T10:05:46.977Z,9.00
2019-02-08T10:08:52.041Z,9.00
2019-02-08T10:11:47.212Z,9.10
2019-02-08T10:14:44.676Z,9.00
2019-02-08T10:17:49.493Z,9.10
2019-02-08T10:20:54.851Z,9.10
2019-02-08T10:23:55.265Z,9.20
2019-02-08T10:26:50.122Z,9.30
2019-02-08T10:29:41.047Z,9.30
2019-02-08T10:32:55.182Z,9.40
2019-02-08T10:36:01.841Z,9.40
2019-02-08T10:38:59.854Z,9.50
2019-02-08T10:42:06.390Z,9.50
2019-02-08T10:45:18.797Z,9.50
2019-02-08T10:48:10.327Z,9.60
2019-02-08T10:51:02.065Z,9.70
2019-02-08T10:53:56.670Z,9.80
2019-02-08T10:57:10.720Z,9.90
2019-02-08T11:00:24.708Z,10.00
2019-02-08T11:03:16.512Z,10.10
2019-02-08T11:06:17.170Z,10.00
2019-02-08T11:09:31.141Z,10.10
2019-02-08T11:12:52.647Z,10.10
2019-02-08T11:15:49.882Z,10.00
2019-02-08T11:18:50.399Z,10.00
2019-02-08T11:21:35.397Z,10.00
2019-02-08T11:24:21.140Z,10.00
2019-02-08T11:27:06.146Z,10.00
2019-02-08T11:29:50.516Z,10.00
2019-02-08T11:32:43.414Z,10.10
2019-02-08T11:35:21.719Z,10.10
2019-02-08T11:38:06.685Z,10.10
2019-02-08T11:40:51.323Z,10.20
2019-02-08T11:43:36.433Z,10.20
2019-02-08T11:46:21.487Z,10.30
2019-02-08T11:49:06.611Z,10.30
2019-02-08T11:51:51.074Z,10.30
2019-02-08T11:54:35.816Z,10.30
2019-02-08T11:57:20.350Z,10.30
2019-02-08T12:00:14.624Z,10.30
2019-02-08T12:02:59.155Z,10.40
2019-02-08T12:05:43.857Z,10.50
2019-02-08T12:08:28.413Z,10.70
2019-02-08T12:11:13.651Z,10.70
2019-02-08T12:13:58.806Z,10.70
2019-02-08T12:16:43.448Z,10.60
2019-02-08T12:19:28.571Z,10.60
2019-02-08T12:22:13.094Z,10.50
2019-02-08T12:24:57.817Z,10.50
2019-02-08T12:27:42.392Z,10.40
2019-02-08T12:30:30.847Z,10.30
2019-02-08T12:33:15.447Z,10.20
2019-02-08T12:35:59.955Z,10.20
2019-02-08T12:38:44.624Z,10.20
2019-02-08T12:41:29.571Z,10.00
2019-02-08T12:44:14.145Z,10.00
2019-02-08T12:46:59.150Z,10.00
2019-02-08T12:49:44.325Z,10.00
2019-02-08T12:52:29.107Z,10.00
2019-02-08T12:55:19.425Z,10.00
2019-02-08T12:58:04.531Z,10.00
2019-02-08T13:00:48.942Z,10.10
2019-02-08T13:03:33.611Z,10.20
2019-02-08T13:06:19.655Z,10.20
2019-02-08T13:09:08.110Z,10.30
2019-02-08T13:11:53.136Z,10.20
2019-02-08T13:14:37.835Z,10.00
2019-02-08T13:17:22.515Z,9.90
2019-02-08T13:20:10.185Z,9.80
2019-02-08T13:22:55.168Z,9.80
2019-02-08T13:25:39.695Z,9.70
2019-02-08T13:28:24.674Z,9.80
2019-02-08T13:31:09.997Z,9.70
2019-02-08T13:33:55.346Z,9.80
2019-02-08T13:36:40.221Z,9.80
2019-02-08T13:39:25.028Z,9.70
2019-02-08T13:42:10.167Z,9.70
2019-02-08T13:44:54.926Z,9.70
2019-02-08T13:47:39.642Z,9.60
2019-02-08T13:50:32.668Z,9.60
2019-02-08T13:53:17.645Z,9.60
2019-02-08T13:56:02.509Z,9.60
2019-02-08T13:58:47.711Z,9.70
2019-02-08T14:01:32.668Z,9.70
2019-02-08T14:04:17.903Z,9.70
2019-02-08T14:07:02.811Z,9.80
2019-02-08T14:09:47.532Z,9.70
2019-02-08T14:12:32.503Z,9.70
2019-02-08T14:15:23.391Z,9.70
2019-02-08T14:18:08.160Z,9.70
2019-02-08T14:20:53.100Z,9.60
2019-02-08T14:23:37.665Z,9.70
2019-02-08T14:26:22.457Z,9.60
2019-02-08T14:29:07.344Z,9.60
2019-02-08T14:31:53.090Z,9.60
2019-02-08T14:34:43.399Z,9.60
2019-02-08T14:37:24.561Z,9.60
2019-02-08T14:40:19.022Z,9.60
2019-02-08T14:43:03.865Z,9.60
2019-02-08T14:45:49.081Z,9.50
2019-02-08T14:48:34.065Z,9.50
2019-02-08T14:51:19.071Z,9.50
2019-02-08T14:54:05.997Z,9.60
2019-02-08T14:56:51.271Z,9.50
2019-02-08T14:59:35.787Z,9.50
2019-02-08T15:02:20.630Z,9.40
2019-02-08T15:05:08.549Z,9.40
2019-02-08T15:07:53.639Z,9.40
2019-02-08T15:10:45.157Z,9.40
2019-02-08T15:13:29.843Z,9.40
2019-02-08T15:16:14.650Z,9.30
2019-02-08T15:18:59.676Z,9.30
2019-02-08T15:21:44.190Z,9.30
2019-02-08T15:24:28.856Z,9.20
2019-02-08T15:27:13.959Z,9.30
2019-02-08T15:29:58.995Z,9.20
2019-02-08T15:32:43.975Z,9.20
2019-02-08T15:35:29.899Z,9.20
2019-02-08T15:38:15.164Z,9.10
2019-02-08T15:41:00.270Z,9.10
2019-02-08T15:43:45.100Z,9.10
2019-02-08T15:46:29.706Z,9.10
2019-02-08T15:49:14.923Z,9.10
2019-02-08T15:52:00.113Z,9.10
2019-02-08T15:54:45.227Z,9.10
2019-02-08T15:57:32.219Z,9.10
2019-02-08T16:00:23.390Z,9.10
2019-02-08T16:03:09.656Z,9.10
2019-02-08T16:05:54.861Z,9.10
2019-02-08T16:08:39.697Z,9.10
2019-02-08T16:11:24.812Z,9.10
2019-02-08T16:14:09.789Z,9.10
2019-02-08T16:16:54.390Z,9.10
2019-02-08T16:19:39.258Z,9.10
2019-02-08T16:22:24.067Z,9.10
2019-02-08T16:25:12.025Z,9.20
2019-02-08T16:27:56.820Z,9.20
2019-02-08T16:30:41.686Z,9.20
2019-02-08T16:33:27.054Z,9.20
2019-02-08T16:36:12.088Z,9.10
2019-02-08T16:38:57.093Z,9.10
2019-02-08T16:41:41.956Z,9.10
2019-02-08T16:44:26.720Z,9.10
2019-02-08T16:47:11.825Z,9.10
2019-02-08T16:49:56.770Z,9.10
2019-02-08T16:52:42.136Z,9.00
2019-02-08T16:55:27.109Z,9.00
2019-02-08T16:58:12.379Z,8.90
2019-02-08T17:00:57.385Z,8.90
2019-02-08T17:03:42.541Z,8.90
2019-02-08T17:06:27.975Z,8.90
2019-02-08T17:09:12.960Z,8.90
2019-02-08T17:11:57.842Z,8.80
2019-02-08T17:14:42.225Z,8.90
2019-02-08T17:17:26.966Z,8.90
2019-02-08T17:20:26.879Z,8.80
2019-02-08T17:23:11.808Z,8.80
2019-02-08T17:25:56.886Z,8.80
2019-02-08T17:28:41.739Z,8.70
2019-02-08T17:31:26.770Z,8.80
2019-02-08T17:34:11.294Z,8.70
2019-02-08T17:36:56.010Z,8.70
2019-02-08T17:39:41.056Z,8.70
2019-02-08T17:42:26.014Z,8.80
2019-02-08T17:45:13.456Z,8.80
2019-02-08T17:47:59.395Z,8.80
2019-02-08T17:50:44.454Z,8.80
2019-02-08T17:53:29.362Z,8.80
2019-02-08T17:56:13.870Z,8.80
2019-02-08T17:58:58.492Z,8.90
2019-02-08T18:01:44.615Z,8.90
2019-02-08T18:04:29.489Z,8.90
2019-02-08T18:07:14.225Z,8.90
2019-02-08T18:09:58.713Z,8.90
2019-02-08T18:12:43.387Z,8.90
2019-02-08T18:15:28.575Z,9.00
2019-02-08T18:18:14.940Z,8.90
2019-02-08T18:20:59.976Z,8.90
2019-02-08T18:23:44.724Z,8.80
2019-02-08T18:26:29.284Z,8.90
2019-02-08T18:29:13.810Z,8.80
2019-02-08T18:31:58.475Z,8.80
2019-02-08T18:34:43.186Z,8.80
2019-02-08T18:37:29.144Z,8.80
2019-02-08T18:40:16.319Z,8.80
2019-02-08T18:43:01.200Z,8.70
2019-02-08T18:45:45.749Z,8.80
2019-02-08T18:48:30.854Z,8.70
2019-02-08T18:51:16.085Z,8.70
2019-02-08T18:54:01.206Z,8.60
2019-02-08T18:56:46.140Z,8.70
2019-02-08T18:59:31.049Z,8.70
2019-02-08T19:02:16.227Z,8.70
2019-02-08T19:05:01.333Z,8.70
2019-02-08T19:07:46.252Z,8.70
2019-02-08T19:10:31.065Z,8.80
2019-02-08T19:13:16.012Z,8.80
2019-02-08T19:16:00.908Z,8.80
2019-02-08T19:18:45.972Z,8.90
2019-02-08T19:21:30.615Z,8.80
2019-02-08T19:24:15.635Z,8.90
2019-02-08T19:27:00.251Z,9.00
2019-02-08T19:29:45.363Z,9.10
2019-02-08T19:32:30.459Z,9.00
2019-02-08T19:35:15.498Z,9.00
2019-02-08T19:38:00.481Z,9.00
2019-02-08T19:40:46.432Z,9.00
2019-02-08T19:43:31.043Z,9.00
2019-02-08T19:46:16.086Z,9.00
2019-02-08T19:49:01.281Z,9.00
2019-02-08T19:51:46.434Z,9.00
2019-02-08T19:54:31.569Z,9.00
2019-02-08T19:57:16.049Z,9.00
2019-02-08T20:00:00.640Z,9.00
2019-02-08T20:02:45.601Z,9.00
2019-02-08T20:05:30.479Z,8.90
2019-02-08T20:08:15.135Z,8.90
2019-02-08T20:11:00.119Z,8.90
2019-02-08T20:13:45.248Z,8.90
2019-02-08T20:16:30.168Z,8.90
2019-02-08T20:19:15.409Z,9.00
2019-02-08T20:22:00.439Z,8.90
2019-02-08T20:24:45.632Z,9.00
2019-02-08T20:27:30.535Z,8.90
2019-02-08T20:30:20.353Z,8.90
2019-02-08T20:33:05.499Z,8.90
2019-02-08T20:35:50.726Z,8.90
2019-02-08T20:38:35.869Z,9.00
2019-02-08T20:41:21.196Z,8.90
2019-02-08T20:44:06.062Z,9.00
2019-02-08T20:46:51.203Z,9.00
2019-02-08T20:49:36.418Z,9.00
2019-02-08T20:52:21.443Z,9.00
2019-02-08T20:55:08.627Z,9.00
2019-02-08T20:57:53.760Z,9.00
2019-02-08T21:00:42.063Z,9.00
2019-02-08T21:03:26.816Z,9.00
2019-02-08T21:06:12.020Z,9.00
2019-02-08T21:08:57.028Z,9.00
2019-02-08T21:11:42.170Z,8.90
2019-02-08T21:14:27.391Z,8.90
2019-02-08T21:17:12.210Z,8.90
2019-02-08T21:19:56.749Z,8.90
2019-02-08T21:22:42.069Z,8.90
2019-02-08T21:25:31.894Z,8.80
2019-02-08T21:28:16.727Z,8.80
2019-02-08T21:31:01.803Z,8.80
2019-02-08T21:33:46.829Z,8.90
2019-02-08T21:36:38.629Z,8.90
2019-02-08T21:39:17.958Z,9.00
2019-02-08T21:42:03.517Z,8.90
2019-02-08T21:44:47.948Z,9.00
2019-02-08T21:47:32.519Z,8.90
2019-02-08T21:50:18.175Z,8.90
2019-02-08T21:53:03.538Z,8.90
2019-02-08T21:55:48.179Z,9.00
2019-02-08T21:58:32.677Z,9.00
2019-02-08T22:01:17.376Z,8.90
2019-02-08T22:04:01.995Z,8.90
2019-02-08T22:06:47.225Z,8.90
2019-02-08T22:09:32.180Z,8.90
2019-02-08T22:12:16.818Z,8.90
2019-02-08T22:15:01.499Z,8.90
2019-02-08T22:17:46.611Z,8.90
2019-02-08T22:20:31.665Z,8.90
2019-02-08T22:23:16.519Z,8.80
2019-02-08T22:26:01.384Z,8.80
2019-02-08T22:28:46.214Z,8.80
2019-02-08T22:31:31.492Z,8.80
2019-02-08T22:34:16.400Z,8.80
2019-02-08T22:37:01.144Z,8.80
2019-02-08T22:39:45.571Z,8.80
2019-02-08T22:42:30.139Z,8.70
2019-02-08T22:45:17.733Z,8.70
2019-02-08T22:48:03.704Z,8.70
2019-02-08T22:50:48.920Z,8.80
2019-02-08T22:53:33.829Z,8.70
2019-02-08T22:56:18.392Z,8.70
2019-02-08T22:59:03.319Z,8.80
2019-02-08T23:01:49.358Z,8.70
2019-02-08T23:04:34.298Z,8.70
2019-02-08T23:07:19.321Z,8.80
2019-02-08T23:10:07.527Z,8.70
2019-02-08T23:12:52.475Z,8.80
2019-02-08T23:15:37.528Z,8.80
2019-02-08T23:18:22.531Z,8.80
2019-02-08T23:21:07.096Z,8.90
2019-02-08T23:23:51.741Z,8.90
2019-02-08T23:26:36.320Z,8.90
2019-02-08T23:29:21.087Z,9.00
2019-02-08T23:32:06.151Z,9.00
2019-02-08T23:34:51.171Z,9.00
2019-02-08T23:37:36.137Z,9.00
2019-02-08T23:40:20.637Z,9.00
2019-02-08T23:43:05.738Z,9.00
2019-02-08T23:45:50.222Z,9.10
2019-02-08T23:48:35.065Z,9.00
2019-02-08T23:51:20.043Z,9.00
2019-02-08T23:54:05.152Z,9.00
2019-02-08T23:56:50.410Z,9.00
2019-02-08T23:59:38.236Z,8.90
